LFSD 210400Z AUTO 36006KT 330V030 9999 FEW021 00/M02 Q1032

ElémentsDécodage
LFSD Station météo située sur l'aérodrome de DIJON Longvic
210400Z émis le 21 du mois à 04h00 UTC
AUTO Bulletin édité par un automate
36006KT vent du 360°, 06 noeuds
330V030 vent de direction variable entre 330° et 030°
9999 visibilité horizontale supérieure à 10 Km
FEW021 nuages rares (1/8 à 2/8) à 2100 pieds
00/M02 température 00°C, point de rosée -02°C
 soit une humidité relative de 86%
Q1032 la pression au niveau de la mer (QNH) est de 1032 hPa